createdAt,value
2023-03-16T00:02:20.329Z,99557.47
2023-03-16T00:04:47.610Z,99559.06
2023-03-16T00:07:15.148Z,99545.69
2023-03-16T00:09:42.435Z,99553.34
2023-03-16T00:12:16.358Z,99550.69
2023-03-16T00:14:48.924Z,99545.19
2023-03-16T00:17:21.538Z,99542.53
2023-03-16T00:19:56.007Z,99533.63
2023-03-16T00:22:30.712Z,99530.72
2023-03-16T00:24:57.980Z,99515.72
2023-03-16T00:27:26.453Z,99521.56
2023-03-16T00:29:57.180Z,99518.94
2023-03-16T00:32:27.868Z,99515.78
2023-03-16T00:34:54.699Z,99509.72
2023-03-16T00:37:23.700Z,99508.47
2023-03-16T00:39:51.494Z,99503.19
2023-03-16T00:42:19.628Z,99509.84
2023-03-16T00:44:46.785Z,99500.09
2023-03-16T00:47:14.458Z,99501.69
2023-03-16T00:49:43.356Z,99491.72
2023-03-16T00:52:15.446Z,99489.06
2023-03-16T00:54:46.872Z,99488.81
2023-03-16T00:57:17.564Z,99480.91
2023-03-16T00:59:46.507Z,99468.28
2023-03-16T01:02:14.407Z,99456.47
2023-03-16T01:04:41.497Z,99456.47
2023-03-16T01:07:11.004Z,99447.28
2023-03-16T01:09:38.447Z,99448.06
2023-03-16T01:12:06.666Z,99431.22
2023-03-16T01:14:34.973Z,99429.38
2023-03-16T01:17:02.852Z,99424.66
2023-03-16T01:19:30.312Z,99420.97
2023-03-16T01:21:56.835Z,99420.72
2023-03-16T01:24:24.316Z,99413.66
2023-03-16T01:26:50.968Z,99399.16
2023-03-16T01:29:17.452Z,99389.66
2023-03-16T01:31:43.969Z,99388.63
2023-03-16T01:34:16.539Z,99387.56
2023-03-16T01:36:46.057Z,99387.09
2023-03-16T01:39:13.794Z,99372.84
2023-03-16T01:41:42.019Z,99366.31
2023-03-16T01:44:30.648Z,99364.47
2023-03-16T01:46:57.781Z,99358.97
2023-03-16T01:49:30.624Z,99364.22
2023-03-16T01:52:02.325Z,99355.03
2023-03-16T01:54:33.914Z,99356.63
2023-03-16T01:57:04.839Z,99358.75
2023-03-16T01:59:38.261Z,99349.25
2023-03-16T02:02:06.275Z,99347.19
2023-03-16T02:04:42.343Z,99344.28
2023-03-16T02:07:10.393Z,99340.38
2023-03-16T02:09:42.720Z,99340.13
2023-03-16T02:12:17.869Z,99327.72
2023-03-16T02:14:51.570Z,99332.78
2023-03-16T02:17:22.055Z,99315.91
2023-03-16T02:20:09.189Z,99318.28
2023-03-16T02:22:43.324Z,99313.56
2023-03-16T02:25:10.860Z,99315.94
2023-03-16T02:27:40.842Z,99312.81
2023-03-16T02:30:11.827Z,99304.91
2023-03-16T02:32:40.501Z,99303.84
2023-03-16T02:35:08.357Z,99301.78
2023-03-16T02:37:35.325Z,99293.63
2023-03-16T02:40:09.777Z,99294.16
2023-03-16T02:42:36.320Z,99300.00
2023-03-16T02:45:02.888Z,99293.66
2023-03-16T02:47:41.779Z,99284.72
2023-03-16T02:50:10.500Z,99281.03
2023-03-16T02:52:38.440Z,99269.41
2023-03-16T02:55:08.935Z,99268.38
2023-03-16T02:57:35.760Z,99278.69
2023-03-16T03:00:02.378Z,99270.25
2023-03-16T03:02:28.925Z,99263.16
2023-03-16T03:04:55.456Z,99259.47
2023-03-16T03:07:22.144Z,99263.44
2023-03-16T03:09:48.654Z,99258.97
2023-03-16T03:12:15.167Z,99255.81
2023-03-16T03:14:41.810Z,99253.75
2023-03-16T03:17:10.133Z,99249.00
2023-03-16T03:19:36.891Z,99244.53
2023-03-16T03:22:06.347Z,99236.34
2023-03-16T03:24:34.455Z,99231.59
2023-03-16T03:27:01.264Z,99234.81
2023-03-16T03:29:34.658Z,99243.25
2023-03-16T03:32:02.038Z,99243.03
2023-03-16T03:34:29.420Z,99242.75
2023-03-16T03:36:56.268Z,99235.41
2023-03-16T03:39:22.818Z,99232.28
2023-03-16T03:41:49.324Z,99239.16
2023-03-16T03:44:15.859Z,99235.19
2023-03-16T03:46:42.539Z,99236.81
2023-03-16T03:49:09.079Z,99233.66
2023-03-16T03:51:35.583Z,99229.19
2023-03-16T03:54:02.074Z,99223.66
2023-03-16T03:56:28.546Z,99218.91
2023-03-16T03:58:55.074Z,99225.53
2023-03-16T04:01:21.654Z,99220.00
2023-03-16T04:03:48.953Z,99223.97
2023-03-16T04:06:15.970Z,99225.31
2023-03-16T04:08:42.671Z,99224.25
2023-03-16T04:11:09.823Z,99214.50
2023-03-16T04:13:36.361Z,99225.59
2023-03-16T04:16:02.982Z,99219.00
2023-03-16T04:18:30.400Z,99222.47
2023-03-16T04:20:56.988Z,99209.00
2023-03-16T04:23:25.078Z,99202.41
2023-03-16T04:25:51.895Z,99204.78
2023-03-16T04:28:18.461Z,99203.50
2023-03-16T04:30:45.003Z,99205.09
2023-03-16T04:33:11.619Z,99208.25
2023-03-16T04:35:38.816Z,99200.88
2023-03-16T04:38:05.481Z,99204.31
2023-03-16T04:40:31.999Z,99205.66
2023-03-16T04:42:58.508Z,99195.88
2023-03-16T04:45:25.008Z,99209.38
2023-03-16T04:47:51.488Z,99202.25
2023-03-16T04:50:18.058Z,99202.78
2023-03-16T04:52:44.564Z,99196.47
2023-03-16T04:55:12.081Z,99191.97
2023-03-16T04:57:38.612Z,99203.06
2023-03-16T05:00:14.004Z,99200.97
2023-03-16T05:02:40.528Z,99205.19
2023-03-16T05:05:07.673Z,99201.25
2023-03-16T05:07:34.312Z,99197.56
2023-03-16T05:10:00.870Z,99199.16
2023-03-16T05:12:27.601Z,99202.34
2023-03-16T05:14:54.099Z,99183.56
2023-03-16T05:17:23.699Z,99184.13
2023-03-16T05:19:50.237Z,99178.56
2023-03-16T05:22:17.019Z,99165.88
2023-03-16T05:24:43.635Z,99169.88
2023-03-16T05:27:10.217Z,99189.16
2023-03-16T05:29:37.069Z,99182.84
2023-03-16T05:32:03.992Z,99178.09
2023-03-16T05:34:31.635Z,99182.31
2023-03-16T05:36:58.442Z,99188.16
2023-03-16T05:39:25.009Z,99181.53
2023-03-16T05:41:51.495Z,99186.81
2023-03-16T05:44:18.008Z,99178.66
2023-03-16T05:46:45.912Z,99181.81
2023-03-16T05:49:13.134Z,99186.06
2023-03-16T05:51:39.747Z,99189.22
2023-03-16T05:54:06.328Z,99186.59
2023-03-16T05:56:32.836Z,99181.03
2023-03-16T05:59:00.408Z,99180.00
2023-03-16T06:01:27.277Z,99186.88
2023-03-16T06:03:54.084Z,99179.50
2023-03-16T06:06:22.964Z,99175.00
2023-03-16T06:08:49.569Z,99178.44
2023-03-16T06:11:16.203Z,99185.03
2023-03-16T06:13:43.137Z,99178.16
2023-03-16T06:16:11.616Z,99171.56
2023-03-16T06:18:38.256Z,99170.50
2023-03-16T06:21:04.849Z,99176.34
2023-03-16T06:23:31.448Z,99162.06
2023-03-16T06:25:59.649Z,99155.19
2023-03-16T06:28:26.211Z,99150.44
2023-03-16T06:30:56.966Z,99160.22
2023-03-16T06:33:24.048Z,99153.63
2023-03-16T06:35:51.847Z,99152.78
2023-03-16T06:38:19.619Z,99154.41
2023-03-16T06:40:46.283Z,99150.97
2023-03-16T06:43:12.763Z,99149.91
2023-03-16T06:45:39.556Z,99143.84
2023-03-16T06:48:07.089Z,99139.34
2023-03-16T06:50:33.694Z,99146.22
2023-03-16T06:53:00.191Z,99147.00
2023-03-16T06:55:26.674Z,99148.34
2023-03-16T06:57:53.206Z,99135.13
2023-03-16T07:00:20.150Z,99145.69
2023-03-16T07:02:46.690Z,99147.28
2023-03-16T07:05:13.374Z,99137.47
2023-03-16T07:07:43.136Z,99129.31
2023-03-16T07:10:15.885Z,99134.31
2023-03-16T07:12:42.535Z,99121.09
2023-03-16T07:15:10.190Z,99124.53
2023-03-16T07:17:36.850Z,99127.72
2023-03-16T07:20:05.921Z,99129.31
2023-03-16T07:22:32.845Z,99125.09
2023-03-16T07:24:59.462Z,99112.13
2023-03-16T07:27:26.063Z,99129.31
2023-03-16T07:29:53.875Z,99133.28
2023-03-16T07:32:21.673Z,99134.88
2023-03-16T07:34:48.622Z,99139.94
2023-03-16T07:37:17.158Z,99136.72
2023-03-16T07:39:44.845Z,99137.28
2023-03-16T07:42:11.372Z,99127.22
2023-03-16T07:44:37.957Z,99134.63
2023-03-16T07:47:04.658Z,99127.25
2023-03-16T07:49:31.379Z,99134.91
2023-03-16T07:51:58.329Z,99139.91
2023-03-16T07:54:24.857Z,99150.25
2023-03-16T07:56:51.380Z,99151.56
2023-03-16T07:59:20.404Z,99152.91
2023-03-16T08:01:48.971Z,99154.25
2023-03-16T08:04:15.588Z,99155.03
2023-03-16T08:06:42.493Z,99147.59
2023-03-16T08:09:09.529Z,99147.38
2023-03-16T08:11:36.179Z,99146.84
2023-03-16T08:14:02.788Z,99140.50
2023-03-16T08:16:29.469Z,99138.34
2023-03-16T08:18:57.198Z,99130.69
2023-03-16T08:21:24.030Z,99129.63
2023-03-16T08:23:50.856Z,99135.47
2023-03-16T08:26:19.202Z,99143.13
2023-03-16T08:28:47.310Z,99142.09
2023-03-16T08:31:15.348Z,99137.31
2023-03-16T08:33:46.901Z,99138.88
2023-03-16T08:36:15.565Z,99125.41
2023-03-16T08:38:44.168Z,99133.06
2023-03-16T08:41:12.562Z,99128.56
2023-03-16T08:43:39.093Z,99137.84
2023-03-16T08:46:06.757Z,99138.38
2023-03-16T08:48:33.627Z,99140.50
2023-03-16T08:51:04.244Z,99138.41
2023-03-16T08:53:30.828Z,99138.66
2023-03-16T08:56:12.420Z,99137.31
2023-03-16T08:58:39.502Z,99137.59
2023-03-16T09:01:06.760Z,99133.63
2023-03-16T09:03:33.489Z,99141.84
2023-03-16T09:06:05.824Z,99144.47
2023-03-16T09:08:33.128Z,99149.25
2023-03-16T09:11:14.887Z,99143.13
2023-03-16T09:13:42.915Z,99138.91
2023-03-16T09:16:12.226Z,99139.44
2023-03-16T09:18:39.971Z,99142.59
2023-03-16T09:21:08.340Z,99135.41
2023-03-16T09:23:37.577Z,99122.44
2023-03-16T09:26:07.487Z,99122.19
2023-03-16T09:28:36.067Z,99120.59
2023-03-16T09:31:03.339Z,99122.94
2023-03-16T09:33:32.118Z,99130.66
2023-03-16T09:35:59.714Z,99137.25
2023-03-16T09:38:26.761Z,99131.69
2023-03-16T09:41:08.674Z,99129.03
2023-03-16T09:44:02.995Z,99135.66
2023-03-16T09:46:38.591Z,99138.28
2023-03-16T09:49:05.345Z,99141.75
2023-03-16T09:51:58.995Z,99143.34
2023-03-16T09:54:56.830Z,99136.69
2023-03-16T09:57:31.611Z,99124.50
2023-03-16T10:00:21.150Z,99118.13
2023-03-16T10:03:45.256Z,99116.81
2023-03-16T10:06:13.861Z,99120.78
2023-03-16T10:08:43.922Z,99115.72
2023-03-16T10:11:42.818Z,99119.69
2023-03-16T10:14:21.786Z,99116.75
2023-03-16T10:16:56.826Z,99115.19
2023-03-16T10:19:29.065Z,99104.81
2023-03-16T10:21:58.432Z,99112.22
2023-03-16T10:25:03.532Z,99106.09
2023-03-16T10:27:33.038Z,99121.47
2023-03-16T10:30:01.703Z,99136.06
2023-03-16T10:32:32.353Z,99118.53
2023-03-16T10:35:06.312Z,99114.28
2023-03-16T10:37:32.929Z,99104.97
2023-03-16T10:40:00.787Z,99105.50
2023-03-16T10:42:27.591Z,99095.94
2023-03-16T10:45:01.600Z,99086.63
2023-03-16T10:47:31.481Z,99094.03
2023-03-16T10:49:58.308Z,99087.38
2023-03-16T10:52:24.956Z,99084.97
2023-03-16T10:54:56.603Z,99084.16
2023-03-16T10:57:27.257Z,99087.34
2023-03-16T10:59:59.430Z,99090.50
2023-03-16T11:02:33.284Z,99081.19
2023-03-16T11:05:01.003Z,99084.88
2023-03-16T11:07:27.724Z,99074.00
2023-03-16T11:09:58.739Z,99081.41
2023-03-16T11:12:31.148Z,99071.03
2023-03-16T11:15:20.139Z,99070.50
2023-03-16T11:17:55.837Z,99083.22
2023-03-16T11:20:26.707Z,99089.06
2023-03-16T11:22:53.234Z,99082.66
2023-03-16T11:25:29.003Z,99084.78
2023-03-16T11:28:17.830Z,99078.38
2023-03-16T11:30:53.689Z,99074.69
2023-03-16T11:33:22.199Z,99078.13
2023-03-16T11:36:01.075Z,99087.91
2023-03-16T11:38:44.071Z,99094.31
2023-03-16T11:41:16.486Z,99099.81
2023-03-16T11:44:10.394Z,99096.91
2023-03-16T11:46:41.958Z,99093.97
2023-03-16T11:49:44.314Z,99091.06
2023-03-16T11:52:29.679Z,99097.38
2023-03-16T11:55:17.602Z,99076.16
2023-03-16T11:57:46.966Z,99077.44
2023-03-16T12:00:35.264Z,99066.56
2023-03-16T12:03:34.112Z,99068.13
2023-03-16T12:06:07.769Z,99066.78
2023-03-16T12:09:17.671Z,99062.50
2023-03-16T12:11:44.676Z,99057.13
2023-03-16T12:14:11.111Z,99059.75
2023-03-16T12:17:01.202Z,99055.19
2023-03-16T12:19:47.160Z,99052.47
2023-03-16T12:22:34.817Z,99043.66
2023-03-16T12:25:04.183Z,99057.66
2023-03-16T12:27:36.627Z,99043.81
2023-03-16T12:30:35.636Z,99035.81
2023-03-16T12:33:20.842Z,99032.81
2023-03-16T12:36:18.191Z,99025.59
2023-03-16T12:39:05.395Z,99036.16
2023-03-16T12:41:38.086Z,99026.53
2023-03-16T12:44:28.094Z,99038.19
2023-03-16T12:47:13.077Z,99034.19
2023-03-16T12:49:40.234Z,99039.72
2023-03-16T12:52:11.328Z,99042.88
2023-03-16T12:54:52.045Z,99053.75
2023-03-16T12:57:19.608Z,99049.22
2023-03-16T12:59:50.712Z,99044.69
2023-03-16T13:02:38.784Z,99050.50
2023-03-16T13:05:09.730Z,99048.66
2023-03-16T13:07:38.464Z,99044.91
2023-03-16T13:10:08.742Z,99048.34
2023-03-16T13:12:37.888Z,99041.16
2023-03-16T13:15:20.214Z,99039.81
2023-03-16T13:18:09.966Z,99044.63
2023-03-16T13:20:48.329Z,99060.28
2023-03-16T13:23:24.127Z,99046.69
2023-03-16T13:26:11.104Z,99031.53
2023-03-16T13:28:38.971Z,99031.25
2023-03-16T13:31:24.435Z,99032.53
2023-03-16T13:33:55.810Z,99028.84
2023-03-16T13:36:24.541Z,99019.78
2023-03-16T13:39:14.483Z,99015.47
2023-03-16T13:41:43.282Z,99017.81
2023-03-16T13:44:15.307Z,99012.50
2023-03-16T13:46:41.824Z,99006.66
2023-03-16T13:49:12.107Z,99013.53
2023-03-16T13:51:38.809Z,99023.13
2023-03-16T13:54:29.884Z,99028.72
2023-03-16T13:56:59.685Z,99022.34
2023-03-16T13:59:26.420Z,99013.28
2023-03-16T14:02:01.862Z,99009.53
2023-03-16T14:04:31.435Z,99019.06
2023-03-16T14:07:03.818Z,99021.75
2023-03-16T14:09:34.560Z,99026.00
2023-03-16T14:12:02.430Z,99010.84
2023-03-16T14:14:36.812Z,99014.28
2023-03-16T14:17:11.885Z,99010.22
2023-03-16T14:20:02.688Z,99017.16
2023-03-16T14:22:38.323Z,99016.84
2023-03-16T14:25:06.053Z,99017.66
2023-03-16T14:27:43.891Z,99008.88
2023-03-16T14:30:20.237Z,99018.94
2023-03-16T14:33:01.253Z,99008.31
2023-03-16T14:35:32.035Z,99016.78
2023-03-16T14:38:36.986Z,99008.53
2023-03-16T14:41:25.935Z,99016.22
2023-03-16T14:44:03.092Z,99009.53
2023-03-16T14:46:37.776Z,99004.44
2023-03-16T14:49:21.136Z,98987.38
2023-03-16T14:51:51.083Z,98982.53
2023-03-16T14:54:24.209Z,98980.09
2023-03-16T14:56:53.096Z,98992.56
2023-03-16T14:59:20.883Z,99001.56
2023-03-16T15:01:49.600Z,99004.13
2023-03-16T15:04:25.697Z,99006.22
2023-03-16T15:06:52.194Z,99000.59
2023-03-16T15:09:31.681Z,98996.56
2023-03-16T15:11:58.348Z,99003.94
2023-03-16T15:14:43.524Z,98994.28
2023-03-16T15:17:10.993Z,99009.69
2023-03-16T15:19:37.811Z,99012.88
2023-03-16T15:22:05.311Z,98995.50
2023-03-16T15:24:33.342Z,99009.34
2023-03-16T15:27:00.749Z,99017.81
2023-03-16T15:29:27.341Z,99009.56
2023-03-16T15:31:54.662Z,99021.78
2023-03-16T15:34:22.531Z,99007.38
2023-03-16T15:36:49.386Z,99003.66
2023-03-16T15:39:25.234Z,99004.13
2023-03-16T15:41:51.856Z,99001.19
2023-03-16T15:44:18.417Z,99009.97
2023-03-16T15:46:45.035Z,99000.88
2023-03-16T15:49:11.696Z,99007.00
2023-03-16T15:51:38.231Z,99007.78
2023-03-16T15:54:08.523Z,99008.59
2023-03-16T15:56:53.189Z,99010.47
2023-03-16T15:59:23.218Z,99007.31
2023-03-16T16:01:50.553Z,99009.19
2023-03-16T16:04:19.902Z,99004.13
2023-03-16T16:06:48.355Z,98994.56
2023-03-16T16:09:15.778Z,98991.38
2023-03-16T16:11:42.551Z,98980.75
2023-03-16T16:14:16.486Z,98978.69
2023-03-16T16:16:45.989Z,98964.84
2023-03-16T16:19:16.739Z,98973.94
2023-03-16T16:21:43.472Z,98976.88
2023-03-16T16:24:10.716Z,98967.59
2023-03-16T16:26:49.919Z,98958.84
2023-03-16T16:29:22.429Z,98962.06
2023-03-16T16:31:49.213Z,98957.03
2023-03-16T16:34:18.098Z,98955.44
2023-03-16T16:36:45.128Z,98960.06
2023-03-16T16:39:11.905Z,98962.75
2023-03-16T16:41:39.590Z,98968.63
2023-03-16T16:44:13.868Z,98961.53
2023-03-16T16:46:42.533Z,98963.19
2023-03-16T16:49:30.639Z,98954.78
2023-03-16T16:51:58.274Z,98947.66
2023-03-16T16:54:28.085Z,98949.03
2023-03-16T16:56:56.548Z,98949.41
2023-03-16T16:59:25.754Z,98948.69
2023-03-16T17:01:54.048Z,98951.91
2023-03-16T17:04:23.523Z,98951.50
2023-03-16T17:06:52.252Z,98958.50
2023-03-16T17:09:19.005Z,98956.94
2023-03-16T17:11:46.014Z,98952.19
2023-03-16T17:14:18.035Z,98947.94
2023-03-16T17:16:48.691Z,98945.84
2023-03-16T17:19:24.395Z,98956.06
2023-03-16T17:21:52.872Z,98959.59
2023-03-16T17:24:19.487Z,98978.50
2023-03-16T17:26:49.411Z,98968.66
2023-03-16T17:29:22.593Z,98963.41
2023-03-16T17:31:50.328Z,98965.53
2023-03-16T17:34:28.053Z,98974.38
2023-03-16T17:36:55.324Z,98968.53
2023-03-16T17:39:27.128Z,98973.66
2023-03-16T17:41:56.751Z,98979.81
2023-03-16T17:44:24.813Z,98975.56
2023-03-16T17:46:51.506Z,98980.41
2023-03-16T17:49:19.992Z,98979.38
2023-03-16T17:51:47.860Z,98981.03
2023-03-16T17:54:14.502Z,98976.28
2023-03-16T17:56:41.825Z,98974.41
2023-03-16T17:59:16.420Z,98970.66
2023-03-16T18:01:44.334Z,98975.75
2023-03-16T18:04:17.882Z,98969.94
2023-03-16T18:06:47.090Z,98975.28
2023-03-16T18:09:15.828Z,98969.97
2023-03-16T18:11:48.280Z,98978.53
2023-03-16T18:14:25.458Z,98978.53
2023-03-16T18:16:52.964Z,98979.88
2023-03-16T18:19:27.202Z,98981.53
2023-03-16T18:21:53.826Z,98970.13
2023-03-16T18:24:22.269Z,98967.44
2023-03-16T18:26:48.828Z,98977.56
2023-03-16T18:29:17.677Z,98975.50
2023-03-16T18:31:45.827Z,98975.53
2023-03-16T18:34:23.910Z,98966.75
2023-03-16T18:36:53.177Z,98971.84
2023-03-16T18:39:21.277Z,98975.88
2023-03-16T18:41:48.230Z,98964.47
2023-03-16T18:44:20.723Z,98961.81
2023-03-16T18:46:48.741Z,98958.63
2023-03-16T18:49:26.474Z,98958.91
2023-03-16T18:51:54.620Z,98961.28
2023-03-16T18:54:25.230Z,98959.19
2023-03-16T18:56:53.802Z,98961.34
2023-03-16T18:59:21.189Z,98963.47
2023-03-16T19:01:48.321Z,98965.06
2023-03-16T19:04:23.912Z,98961.34
2023-03-16T19:06:53.431Z,98958.16
2023-03-16T19:09:24.474Z,98960.31
2023-03-16T19:11:52.633Z,98948.41
2023-03-16T19:14:33.032Z,98957.44
2023-03-16T19:16:59.610Z,98951.84
2023-03-16T19:19:27.492Z,98956.66
2023-03-16T19:21:58.874Z,98959.31
2023-03-16T19:24:28.953Z,98958.22
2023-03-16T19:26:57.842Z,98969.41
2023-03-16T19:29:31.532Z,98960.66
2023-03-16T19:31:58.964Z,98948.44
2023-03-16T19:34:25.984Z,98952.16
2023-03-16T19:36:52.636Z,98950.59
2023-03-16T19:39:20.665Z,98947.94
2023-03-16T19:41:53.861Z,98947.13
2023-03-16T19:44:22.704Z,98944.78
2023-03-16T19:46:50.257Z,98948.22
2023-03-16T19:49:22.822Z,98956.75
2023-03-16T19:51:51.507Z,98960.72
2023-03-16T19:54:32.072Z,98963.63
2023-03-16T19:57:02.131Z,98966.03
2023-03-16T19:59:32.711Z,98961.56
2023-03-16T20:01:59.897Z,98958.09
2023-03-16T20:04:28.349Z,98959.94
2023-03-16T20:06:54.886Z,98954.63
2023-03-16T20:09:22.520Z,98959.94
2023-03-16T20:11:50.132Z,98940.56
2023-03-16T20:14:35.087Z,98947.25
2023-03-16T20:17:02.046Z,98938.22
2023-03-16T20:19:28.662Z,98929.47
2023-03-16T20:21:55.361Z,98924.94
2023-03-16T20:24:22.297Z,98940.06
2023-03-16T20:26:51.411Z,98948.03
2023-03-16T20:29:31.300Z,98953.63
2023-03-16T20:31:58.677Z,98936.91
2023-03-16T20:34:28.385Z,98950.47
2023-03-16T20:36:55.904Z,98952.03
2023-03-16T20:39:22.638Z,98955.78
2023-03-16T20:41:50.533Z,98955.78
2023-03-16T20:44:22.143Z,98957.63
2023-03-16T20:46:49.048Z,98963.75
2023-03-16T20:49:30.048Z,98961.34
2023-03-16T20:51:57.007Z,98972.75
2023-03-16T20:54:23.674Z,98961.34
2023-03-16T20:56:50.315Z,98956.81
2023-03-16T20:59:20.362Z,98959.47
2023-03-16T21:01:49.792Z,98961.34
2023-03-16T21:04:22.441Z,98960.56
2023-03-16T21:06:50.906Z,98965.88
2023-03-16T21:09:18.985Z,98957.41
2023-03-16T21:11:46.154Z,98952.09
2023-03-16T21:14:20.892Z,98949.69
2023-03-16T21:16:47.802Z,98946.78
2023-03-16T21:19:23.099Z,98958.19
2023-03-16T21:21:49.869Z,98968.81
2023-03-16T21:24:16.525Z,98970.69
2023-03-16T21:26:44.626Z,98970.69
2023-03-16T21:29:16.362Z,98968.03
2023-03-16T21:31:43.175Z,98966.41
2023-03-16T21:34:23.936Z,98967.50
2023-03-16T21:36:50.634Z,98964.06
2023-03-16T21:39:23.559Z,98965.13
2023-03-16T21:41:50.877Z,98950.50
2023-03-16T21:44:18.422Z,98959.03
2023-03-16T21:46:47.195Z,98965.13
2023-03-16T21:49:14.936Z,98960.91
2023-03-16T21:51:43.156Z,98968.88
2023-03-16T21:54:14.455Z,98967.25
2023-03-16T21:56:42.338Z,98968.88
2023-03-16T21:59:09.076Z,98972.81
2023-03-16T22:01:44.899Z,98970.97
2023-03-16T22:04:17.869Z,98966.44
2023-03-16T22:06:46.928Z,98962.22
2023-03-16T22:09:22.907Z,98963.28
2023-03-16T22:11:49.738Z,98969.09
2023-03-16T22:14:18.807Z,98974.94
2023-03-16T22:16:46.520Z,98963.28
2023-03-16T22:19:14.596Z,98973.13
2023-03-16T22:21:44.075Z,98973.91
2023-03-16T22:24:30.615Z,98978.44
2023-03-16T22:26:58.287Z,98967.00
2023-03-16T22:29:30.904Z,98968.59
2023-03-16T22:32:04.443Z,98972.28
2023-03-16T22:34:38.374Z,98962.75
2023-03-16T22:37:05.662Z,98971.50
2023-03-16T22:39:37.708Z,98973.38
2023-03-16T22:42:25.167Z,98975.25
2023-03-16T22:44:51.757Z,98986.09
2023-03-16T22:47:23.593Z,98978.97
2023-03-16T22:49:50.469Z,98976.03
2023-03-16T22:52:17.874Z,98973.38
2023-03-16T22:54:46.465Z,98975.25
2023-03-16T22:57:14.967Z,98975.25
2023-03-16T22:59:42.250Z,98972.59
2023-03-16T23:02:14.961Z,98976.03
2023-03-16T23:04:41.949Z,98976.31
2023-03-16T23:07:13.390Z,98983.50
2023-03-16T23:09:40.663Z,98977.41
2023-03-16T23:12:15.917Z,98983.50
2023-03-16T23:14:43.355Z,98984.28
2023-03-16T23:17:18.762Z,98976.56
2023-03-16T23:19:46.002Z,98968.91
2023-03-16T23:22:12.572Z,98980.31
2023-03-16T23:24:39.252Z,98975.00
2023-03-16T23:27:17.604Z,98975.28
2023-03-16T23:29:44.296Z,98978.72
2023-03-16T23:32:11.711Z,98973.44
2023-03-16T23:34:38.290Z,98973.69
2023-03-16T23:37:04.936Z,98980.59
2023-03-16T23:39:31.611Z,98979.81
2023-03-16T23:41:58.353Z,98978.22
2023-03-16T23:44:27.586Z,98970.25
2023-03-16T23:46:54.401Z,98966.81
2023-03-16T23:49:27.195Z,98969.19
2023-03-16T23:51:57.718Z,98972.09
2023-03-16T23:54:27.961Z,98975.56
2023-03-16T23:56:54.634Z,98985.13
2023-03-16T23:59:21.444Z,98984.59
